Ginys del Meteocat

Dades de l'estació automàtica el Poal

?
?
Resum diari 21:30 TU
Dades diàries de l'estació meteorològica
Temperatura mitjana 6.6 °C
Temperatura màxima 12.5 °C 14:40 TU
Temperatura mínima 0.5 °C 7:18 TU
Humitat relativa mitjana 90%
Precipitació acumulada 0.1 mm
Ratxa màxima del vent (2 m) 10.4 km/h - 55º 1:33 TU
Irradiació solar global 9.4 MJ/m2

El tram horari està expressat en Temps Universal (TU). Cal sumar una hora en horari d'hivern i dues en horari d'estiu per passar a l'hora oficial.

el Poal

Metadades estació meteorol´gica
Municipi El Poal
Comarca Pla d'Urgell
Altitud 223 m
Data alta 14.09.1989
Estat actual Operativa
Dades de període
Període
TU
TM
°C
TX
°C
TN
°C
HRM
%
PPT
mm
VVM (2 m)
km/h
DVM (2 m)
graus
VVX (2 m)
km/h
RS
W/m2
00:00 - 00:30 6.8 6.9 6.7 91 0.0 2.5 92 5.4 0
00:30 - 01:00 6.8 6.9 6.8 91 0.0 2.5 72 5.4 0
01:00 - 01:30 7.0 7.1 6.9 89 0.0 4.3 71 9.0 0
01:30 - 02:00 7.2 7.3 7.1 88 0.0 5.0 76 10.4 0
02:00 - 02:30 7.2 7.4 7.1 87 0.0 4.3 90 8.3 0
02:30 - 03:00 6.3 7.1 5.6 91 0.0 4.0 126 9.0 0
03:00 - 03:30 5.0 5.7 4.1 96 0.0 1.8 92 4.3 0
03:30 - 04:00 4.0 4.2 3.7 98 0.0 1.1 340 5.0 0
04:00 - 04:30 3.6 3.7 3.5 98 0.0 0.7 230 2.9 0
04:30 - 05:00 3.0 3.6 2.6 99 0.0 1.1 133 4.3 0
05:00 - 05:30 2.6 3.1 2.1 99 0.0 0.4 207 2.5 0
05:30 - 06:00 2.0 2.5 1.4 99 0.0 1.4 160 4.3 0
06:00 - 06:30 1.8 2.1 1.6 99 0.0 2.2 172 4.3 0
06:30 - 07:00 1.6 1.9 1.2 99 0.0 1.4 152 4.3 0
07:00 - 07:30 1.0 1.5 0.5 99 0.0 1.1 272 5.0 3
07:30 - 08:00 1.7 1.8 1.4 100 0.0 0.7 341 2.9 28
08:00 - 08:30 2.2 2.5 1.8 100 0.0 3.6 58 8.3 72
08:30 - 09:00 3.1 4.0 2.4 100 0.1 4.3 38 8.6 147
09:00 - 09:30 4.6 5.4 4.0 99 0.0 3.6 67 6.1 271
09:30 - 10:00 6.3 7.6 5.5 95 0.0 2.2 185 6.5 308
10:00 - 10:30 7.6 7.9 7.0 86 0.0 1.8 24 5.0 402
10:30 - 11:00 8.6 9.1 8.0 81 0.0 2.5 358 5.4 443
11:00 - 11:30 9.5 10.1 9.0 79 0.0 2.5 356 6.5 454
11:30 - 12:00 10.1 10.8 9.8 75 0.0 2.2 345 6.1 409
12:00 - 12:30 11.0 11.9 10.5 71 0.0 2.2 308 6.5 547
12:30 - 13:00 11.5 11.8 11.1 71 0.0 2.2 347 5.8 488
13:00 - 13:30 11.7 12.2 11.4 74 0.0 3.6 268 9.0 435
13:30 - 14:00 11.8 12.2 11.5 72 0.0 3.6 289 7.6 347
14:00 - 14:30 12.2 12.4 12.0 68 0.0 3.2 290 8.3 377
14:30 - 15:00 12.3 12.5 12.1 67 0.0 4.7 237 8.6 272
15:00 - 15:30 11.8 12.2 11.4 69 0.0 5.0 236 7.6 130
15:30 - 16:00 11.2 11.4 10.7 76 0.0 4.3 215 7.2 89
16:00 - 16:30 10.4 10.6 10.1 82 0.0 4.7 223 8.3 59
16:30 - 17:00 9.3 10.0 8.5 88 0.0 4.0 227 5.4 14
17:00 - 17:30 8.4 8.6 7.8 91 0.0 2.9 229 4.3 0
17:30 - 18:00 7.4 7.9 6.7 95 0.0 0.7 208 2.9 0
18:00 - 18:30 6.2 6.7 5.4 97 0.0 0.7 172 2.2 0
18:30 - 19:00 5.5 5.9 5.1 98 0.0 0.7 38 3.2 0
19:00 - 19:30 5.2 5.5 4.9 99 0.0 1.8 125 2.9 0
19:30 - 20:00 5.1 5.5 4.6 99 0.0 1.4 123 2.9 0
20:00 - 20:30 4.6 4.9 4.1 99 0.0 1.8 143 3.6 0
20:30 - 21:00 5.0 5.3 4.1 99 0.0 1.4 134 4.0 0
21:00 - 21:30 5.5 5.6 5.3 99 0.0 1.1 119 3.2 0
21:30 - 22:00 5.3 5.5 5.1 99 0.0 1.4 358 4.3 0

Les dades en taronja només han passat un control de qualitat automàtic. Resta pendent la seva validació definitiva.